KSJT/SJT METAR and TAF weather

Enter ICAO airport designator
Station Type Date Time Source
KSJT METAR 2021/07/27 19:51 UTC NOAA

KSJT 271951Z 20004KT 10SM CLR 37/13 A3004 RMK AO2 SLP142 T03720133


Station Type Date Time Source
KSJT Decoded METAR 2021/07/27 19:51 UTC NOAA

MATHIS FIELD, TX, United States (KSJT) 31-21N 100-30W 581M
Jul 27, 2021 - 03:51 PM EDT / 2021.07.27 1951 UTC
Wind: from the SSW (200 degrees) at 5 MPH (4 KT):0
Visibility: 10 mile(s):0
Sky conditions: clear
Temperature: 99.0 F (37.2 C)
Heat index: 97.7 F (36.5 C):1
Dew Point: 55.9 F (13.3 C)
Relative Humidity: 24%
Pressure (altimeter): 30.04 in. Hg (1017 hPa)
ob: KSJT 271951Z 20004KT 10SM CLR 37/13 A3004 RMK AO2 SLP142 T03720133
cycle: 20

Station Type Date Time Source
KSJT TAF 2021/07/27 18:33 UTC NOAA

TAF KSJT 271731Z 2718/2818 11008KT P6SM FEW250
FM280300 09006KT P6SM BKN250

Example: see airport list